sensor_id;sensor_type;location;lat;lon;timestamp;temperature;humidity
56869;DHT22;42754;0.000;0.000;2022-09-03T00:00:21;16.40;86.60
56869;DHT22;42754;0.000;0.000;2022-09-03T00:05:25;16.40;86.00
56869;DHT22;42754;0.000;0.000;2022-09-03T00:08:06;16.30;86.30
56869;DHT22;42754;0.000;0.000;2022-09-03T00:10:56;16.30;86.80
56869;DHT22;42754;0.000;0.000;2022-09-03T00:13:32;16.30;86.70
56869;DHT22;42754;0.000;0.000;2022-09-03T00:15:59;16.20;87.00
56869;DHT22;42754;0.000;0.000;2022-09-03T00:18:30;16.20;86.50
56869;DHT22;42754;0.000;0.000;2022-09-03T00:21:02;16.20;87.20
56869;DHT22;42754;0.000;0.000;2022-09-03T00:23:34;16.10;87.40
56869;DHT22;42754;0.000;0.000;2022-09-03T00:29:00;16.00;87.20
56869;DHT22;42754;0.000;0.000;2022-09-03T00:34:18;15.90;87.50
56869;DHT22;42754;0.000;0.000;2022-09-03T00:36:45;15.90;87.60
56869;DHT22;42754;0.000;0.000;2022-09-03T00:39:21;15.80;88.10
56869;DHT22;42754;0.000;0.000;2022-09-03T00:53:43;15.70;88.00
56869;DHT22;42754;0.000;0.000;2022-09-03T01:13:11;15.30;89.10
56869;DHT22;42754;0.000;0.000;2022-09-03T01:21:38;15.20;89.30
56869;DHT22;42754;0.000;0.000;2022-09-03T01:24:26;15.10;89.50
56869;DHT22;42754;0.000;0.000;2022-09-03T01:27:08;15.20;89.80
56869;DHT22;42754;0.000;0.000;2022-09-03T01:30:03;15.10;89.50
56869;DHT22;42754;0.000;0.000;2022-09-03T01:32:44;15.00;89.90
56869;DHT22;42754;0.000;0.000;2022-09-03T01:35:20;15.00;89.60
56869;DHT22;42754;0.000;0.000;2022-09-03T01:45:53;14.90;90.30
56869;DHT22;42754;0.000;0.000;2022-09-03T01:51:22;14.80;90.30
56869;DHT22;42754;0.000;0.000;2022-09-03T01:57:07;14.80;90.30
56869;DHT22;42754;0.000;0.000;2022-09-03T02:00:02;14.80;90.30
56869;DHT22;42754;0.000;0.000;2022-09-03T02:02:28;14.60;90.50
56869;DHT22;42754;0.000;0.000;2022-09-03T02:05:25;14.60;90.60
56869;DHT22;42754;0.000;0.000;2022-09-03T02:10:51;14.50;90.60
56869;DHT22;42754;0.000;0.000;2022-09-03T02:13:29;14.40;90.70
56869;DHT22;42754;0.000;0.000;2022-09-03T02:15:59;14.50;90.60
56869;DHT22;42754;0.000;0.000;2022-09-03T02:18:37;14.50;90.70
56869;DHT22;42754;0.000;0.000;2022-09-03T02:21:06;14.50;90.60
56869;DHT22;42754;0.000;0.000;2022-09-03T02:23:32;14.40;90.80
56869;DHT22;42754;0.000;0.000;2022-09-03T02:26:01;14.30;90.70
56869;DHT22;42754;0.000;0.000;2022-09-03T02:28:27;14.30;90.90
56869;DHT22;42754;0.000;0.000;2022-09-03T02:30:54;14.30;90.70
56869;DHT22;42754;0.000;0.000;2022-09-03T02:33:19;14.20;91.00
56869;DHT22;42754;0.000;0.000;2022-09-03T02:35:45;14.20;90.80
56869;DHT22;42754;0.000;0.000;2022-09-03T02:38:17;14.20;90.90
56869;DHT22;42754;0.000;0.000;2022-09-03T02:40:43;14.20;91.10
56869;DHT22;42754;0.000;0.000;2022-09-03T02:43:55;14.20;90.90
56869;DHT22;42754;0.000;0.000;2022-09-03T02:46:02;14.20;90.80
56869;DHT22;42754;0.000;0.000;2022-09-03T02:48:29;14.10;90.90
56869;DHT22;42754;0.000;0.000;2022-09-03T02:50:54;14.10;90.90
56869;DHT22;42754;0.000;0.000;2022-09-03T02:53:20;14.00;91.20
56869;DHT22;42754;0.000;0.000;2022-09-03T02:55:46;13.90;91.20
56869;DHT22;42754;0.000;0.000;2022-09-03T02:58:12;13.80;91.40
56869;DHT22;42754;0.000;0.000;2022-09-03T03:00:37;13.70;91.50
56869;DHT22;42754;0.000;0.000;2022-09-03T03:03:05;13.80;91.60
56869;DHT22;42754;0.000;0.000;2022-09-03T03:05:53;13.70;91.60
56869;DHT22;42754;0.000;0.000;2022-09-03T03:08:22;13.70;91.70
56869;DHT22;42754;0.000;0.000;2022-09-03T03:10:51;13.70;91.60
56869;DHT22;42754;0.000;0.000;2022-09-03T03:13:17;13.60;91.80
56869;DHT22;42754;0.000;0.000;2022-09-03T03:15:43;13.70;91.80
56869;DHT22;42754;0.000;0.000;2022-09-03T03:18:10;13.60;91.80
56869;DHT22;42754;0.000;0.000;2022-09-03T03:20:39;13.50;91.90
56869;DHT22;42754;0.000;0.000;2022-09-03T03:23:06;13.50;92.00
56869;DHT22;42754;0.000;0.000;2022-09-03T03:25:36;13.50;91.90
56869;DHT22;42754;0.000;0.000;2022-09-03T03:28:02;13.60;91.90
56869;DHT22;42754;0.000;0.000;2022-09-03T03:30:29;13.40;92.00
56869;DHT22;42754;0.000;0.000;2022-09-03T03:32:55;13.40;92.20
56869;DHT22;42754;0.000;0.000;2022-09-03T03:35:21;13.40;92.10
56869;DHT22;42754;0.000;0.000;2022-09-03T03:37:46;13.40;92.10
56869;DHT22;42754;0.000;0.000;2022-09-03T03:40:13;13.40;92.20
56869;DHT22;42754;0.000;0.000;2022-09-03T03:42:40;13.40;92.20
56869;DHT22;42754;0.000;0.000;2022-09-03T03:45:06;13.40;92.30
56869;DHT22;42754;0.000;0.000;2022-09-03T03:47:32;13.40;92.20
56869;DHT22;42754;0.000;0.000;2022-09-03T03:49:58;13.30;92.10
56869;DHT22;42754;0.000;0.000;2022-09-03T03:52:25;13.30;92.30
56869;DHT22;42754;0.000;0.000;2022-09-03T03:54:52;13.20;92.40
56869;DHT22;42754;0.000;0.000;2022-09-03T03:57:18;13.20;92.50
56869;DHT22;42754;0.000;0.000;2022-09-03T03:59:45;13.20;92.60
56869;DHT22;42754;0.000;0.000;2022-09-03T04:02:12;13.10;92.50
56869;DHT22;42754;0.000;0.000;2022-09-03T04:04:38;13.10;92.60
56869;DHT22;42754;0.000;0.000;2022-09-03T04:07:04;13.10;92.50
56869;DHT22;42754;0.000;0.000;2022-09-03T04:09:30;13.10;92.50
56869;DHT22;42754;0.000;0.000;2022-09-03T04:11:55;13.10;92.50
56869;DHT22;42754;0.000;0.000;2022-09-03T04:14:22;13.10;92.50
56869;DHT22;42754;0.000;0.000;2022-09-03T04:16:48;13.00;92.70
56869;DHT22;42754;0.000;0.000;2022-09-03T04:19:15;13.00;92.50
56869;DHT22;42754;0.000;0.000;2022-09-03T04:21:41;13.10;92.60
56869;DHT22;42754;0.000;0.000;2022-09-03T04:24:07;13.00;92.70
56869;DHT22;42754;0.000;0.000;2022-09-03T04:26:33;12.90;92.80
56869;DHT22;42754;0.000;0.000;2022-09-03T04:29:01;12.90;92.80
56869;DHT22;42754;0.000;0.000;2022-09-03T04:31:27;12.90;92.80
56869;DHT22;42754;0.000;0.000;2022-09-03T04:33:53;12.90;92.80
56869;DHT22;42754;0.000;0.000;2022-09-03T04:36:21;12.80;92.90
56869;DHT22;42754;0.000;0.000;2022-09-03T04:38:49;12.90;92.90
56869;DHT22;42754;0.000;0.000;2022-09-03T04:41:17;12.90;92.90
56869;DHT22;42754;0.000;0.000;2022-09-03T04:43:43;12.90;92.90
56869;DHT22;42754;0.000;0.000;2022-09-03T04:46:11;12.70;93.10
56869;DHT22;42754;0.000;0.000;2022-09-03T04:48:37;12.70;93.20
56869;DHT22;42754;0.000;0.000;2022-09-03T04:51:12;12.70;93.20
56869;DHT22;42754;0.000;0.000;2022-09-03T04:53:41;12.70;93.10
56869;DHT22;42754;0.000;0.000;2022-09-03T04:56:15;12.70;93.20
56869;DHT22;42754;0.000;0.000;2022-09-03T04:58:42;12.70;93.40
56869;DHT22;42754;0.000;0.000;2022-09-03T05:01:10;12.60;93.40
56869;DHT22;42754;0.000;0.000;2022-09-03T05:03:35;12.70;93.20
56869;DHT22;42754;0.000;0.000;2022-09-03T05:06:04;12.70;93.20
56869;DHT22;42754;0.000;0.000;2022-09-03T05:08:31;12.70;93.30
56869;DHT22;42754;0.000;0.000;2022-09-03T05:11:00;12.60;93.50
56869;DHT22;42754;0.000;0.000;2022-09-03T05:13:26;12.60;93.40
56869;DHT22;42754;0.000;0.000;2022-09-03T05:15:57;12.60;93.50
56869;DHT22;42754;0.000;0.000;2022-09-03T05:18:23;12.60;93.50
56869;DHT22;42754;0.000;0.000;2022-09-03T05:21:00;12.60;93.60
56869;DHT22;42754;0.000;0.000;2022-09-03T05:23:27;12.60;93.50
56869;DHT22;42754;0.000;0.000;2022-09-03T05:26:00;12.70;93.40
56869;DHT22;42754;0.000;0.000;2022-09-03T05:28:28;12.90;93.30
56869;DHT22;42754;0.000;0.000;2022-09-03T05:31:16;13.10;93.20
56869;DHT22;42754;0.000;0.000;2022-09-03T05:33:47;13.00;93.20
56869;DHT22;42754;0.000;0.000;2022-09-03T05:36:16;12.90;93.40
56869;DHT22;42754;0.000;0.000;2022-09-03T05:38:42;13.10;93.50
56869;DHT22;42754;0.000;0.000;2022-09-03T05:41:09;13.20;93.50
56869;DHT22;42754;0.000;0.000;2022-09-03T05:43:35;13.50;92.40
56869;DHT22;42754;0.000;0.000;2022-09-03T05:46:10;13.40;92.80
56869;DHT22;42754;0.000;0.000;2022-09-03T05:48:37;13.40;92.90
56869;DHT22;42754;0.000;0.000;2022-09-03T05:51:05;13.70;92.60
56869;DHT22;42754;0.000;0.000;2022-09-03T05:53:34;14.30;92.20
56869;DHT22;42754;0.000;0.000;2022-09-03T05:56:02;15.20;90.90
56869;DHT22;42754;0.000;0.000;2022-09-03T05:58:32;15.50;90.10
56869;DHT22;42754;0.000;0.000;2022-09-03T06:00:59;15.90;90.50
56869;DHT22;42754;0.000;0.000;2022-09-03T06:03:25;16.20;90.00
56869;DHT22;42754;0.000;0.000;2022-09-03T06:05:54;16.40;89.40
56869;DHT22;42754;0.000;0.000;2022-09-03T06:08:21;16.60;89.50
56869;DHT22;42754;0.000;0.000;2022-09-03T06:10:46;16.90;88.70
56869;DHT22;42754;0.000;0.000;2022-09-03T06:13:12;17.00;86.60
56869;DHT22;42754;0.000;0.000;2022-09-03T06:15:38;17.30;87.30
56869;DHT22;42754;0.000;0.000;2022-09-03T06:18:04;17.60;87.00
56869;DHT22;42754;0.000;0.000;2022-09-03T06:20:29;17.70;86.10
56869;DHT22;42754;0.000;0.000;2022-09-03T06:22:56;18.00;85.60
56869;DHT22;42754;0.000;0.000;2022-09-03T06:25:22;18.10;84.60
56869;DHT22;42754;0.000;0.000;2022-09-03T06:27:48;18.00;84.00
56869;DHT22;42754;0.000;0.000;2022-09-03T06:30:14;18.20;85.00
56869;DHT22;42754;0.000;0.000;2022-09-03T06:32:45;18.10;83.30
56869;DHT22;42754;0.000;0.000;2022-09-03T06:35:10;18.10;83.90
56869;DHT22;42754;0.000;0.000;2022-09-03T06:37:40;18.00;82.40
56869;DHT22;42754;0.000;0.000;2022-09-03T06:40:07;17.90;82.30
56869;DHT22;42754;0.000;0.000;2022-09-03T06:42:37;18.00;83.20
56869;DHT22;42754;0.000;0.000;2022-09-03T06:45:03;18.00;82.50
56869;DHT22;42754;0.000;0.000;2022-09-03T06:47:31;18.10;83.20
56869;DHT22;42754;0.000;0.000;2022-09-03T06:49:58;17.90;82.00
56869;DHT22;42754;0.000;0.000;2022-09-03T06:52:24;17.90;83.10
56869;DHT22;42754;0.000;0.000;2022-09-03T06:54:50;18.20;83.30
56869;DHT22;42754;0.000;0.000;2022-09-03T06:57:15;18.30;82.70
56869;DHT22;42754;0.000;0.000;2022-09-03T06:59:41;18.20;83.10
56869;DHT22;42754;0.000;0.000;2022-09-03T07:02:08;18.30;83.50
56869;DHT22;42754;0.000;0.000;2022-09-03T07:04:34;18.20;82.90
56869;DHT22;42754;0.000;0.000;2022-09-03T07:06:59;18.00;82.80
56869;DHT22;42754;0.000;0.000;2022-09-03T07:09:25;18.30;82.60
56869;DHT22;42754;0.000;0.000;2022-09-03T07:11:51;18.40;82.50
56869;DHT22;42754;0.000;0.000;2022-09-03T07:14:18;18.60;81.30
56869;DHT22;42754;0.000;0.000;2022-09-03T07:16:44;18.60;81.90
56869;DHT22;42754;0.000;0.000;2022-09-03T07:19:10;18.60;81.40
56869;DHT22;42754;0.000;0.000;2022-09-03T07:21:38;18.60;81.50
56869;DHT22;42754;0.000;0.000;2022-09-03T07:24:06;18.70;82.10
56869;DHT22;42754;0.000;0.000;2022-09-03T07:26:41;18.80;81.40
56869;DHT22;42754;0.000;0.000;2022-09-03T07:29:13;18.80;81.90
56869;DHT22;42754;0.000;0.000;2022-09-03T07:31:41;18.60;80.50
56869;DHT22;42754;0.000;0.000;2022-09-03T07:34:09;18.60;81.30
56869;DHT22;42754;0.000;0.000;2022-09-03T07:36:39;18.60;80.90
56869;DHT22;42754;0.000;0.000;2022-09-03T07:39:07;18.70;80.50
56869;DHT22;42754;0.000;0.000;2022-09-03T07:41:33;18.80;80.80
56869;DHT22;42754;0.000;0.000;2022-09-03T07:43:59;19.10;80.20
56869;DHT22;42754;0.000;0.000;2022-09-03T07:46:31;19.20;80.10
56869;DHT22;42754;0.000;0.000;2022-09-03T07:48:58;19.20;80.10
56869;DHT22;42754;0.000;0.000;2022-09-03T07:51:28;19.20;79.90
56869;DHT22;42754;0.000;0.000;2022-09-03T07:53:56;19.20;80.50
56869;DHT22;42754;0.000;0.000;2022-09-03T07:56:22;19.30;79.80
56869;DHT22;42754;0.000;0.000;2022-09-03T07:58:48;19.40;79.60
56869;DHT22;42754;0.000;0.000;2022-09-03T08:01:19;19.40;80.10
56869;DHT22;42754;0.000;0.000;2022-09-03T08:03:50;19.30;80.00
56869;DHT22;42754;0.000;0.000;2022-09-03T08:06:18;19.50;81.00
56869;DHT22;42754;0.000;0.000;2022-09-03T08:08:44;19.60;79.80
56869;DHT22;42754;0.000;0.000;2022-09-03T08:11:12;19.60;79.50
56869;DHT22;42754;0.000;0.000;2022-09-03T08:13:52;19.70;79.80
56869;DHT22;42754;0.000;0.000;2022-09-03T08:16:18;19.90;78.60
56869;DHT22;42754;0.000;0.000;2022-09-03T08:18:44;20.00;78.30
56869;DHT22;42754;0.000;0.000;2022-09-03T08:21:14;20.50;77.90
56869;DHT22;42754;0.000;0.000;2022-09-03T08:23:42;21.10;76.50
56869;DHT22;42754;0.000;0.000;2022-09-03T08:26:08;21.80;75.50
56869;DHT22;42754;0.000;0.000;2022-09-03T08:28:35;22.20;73.90
56869;DHT22;42754;0.000;0.000;2022-09-03T08:31:17;22.50;73.10
56869;DHT22;42754;0.000;0.000;2022-09-03T08:33:48;23.10;72.60
56869;DHT22;42754;0.000;0.000;2022-09-03T08:36:17;23.20;71.70
56869;DHT22;42754;0.000;0.000;2022-09-03T08:38:45;23.00;71.30
56869;DHT22;42754;0.000;0.000;2022-09-03T08:46:19;23.80;70.40
56869;DHT22;42754;0.000;0.000;2022-09-03T08:48:48;24.60;68.90
56869;DHT22;42754;0.000;0.000;2022-09-03T08:51:15;24.80;68.30
56869;DHT22;42754;0.000;0.000;2022-09-03T08:53:47;25.40;67.40
56869;DHT22;42754;0.000;0.000;2022-09-03T08:56:24;25.90;66.70
56869;DHT22;42754;0.000;0.000;2022-09-03T08:58:50;26.60;65.80
56869;DHT22;42754;0.000;0.000;2022-09-03T09:01:50;26.80;65.50
56869;DHT22;42754;0.000;0.000;2022-09-03T09:07:10;27.50;64.00
56869;DHT22;42754;0.000;0.000;2022-09-03T09:12:44;28.30;63.20
56869;DHT22;42754;0.000;0.000;2022-09-03T09:15:41;27.80;63.00
56869;DHT22;42754;0.000;0.000;2022-09-03T09:18:22;28.50;62.60
56869;DHT22;42754;0.000;0.000;2022-09-03T09:20:55;28.70;63.00
56869;DHT22;42754;0.000;0.000;2022-09-03T09:23:46;28.80;62.40
56869;DHT22;42754;0.000;0.000;2022-09-03T09:26:15;29.20;62.70
56869;DHT22;42754;0.000;0.000;2022-09-03T09:28:41;29.60;61.60
56869;DHT22;42754;0.000;0.000;2022-09-03T09:31:11;29.50;61.80
56869;DHT22;42754;0.000;0.000;2022-09-03T09:33:40;28.90;61.20
56869;DHT22;42754;0.000;0.000;2022-09-03T09:36:09;29.30;61.20
56869;DHT22;42754;0.000;0.000;2022-09-03T09:38:38;28.80;61.30
56869;DHT22;42754;0.000;0.000;2022-09-03T09:41:12;29.00;61.40
56869;DHT22;42754;0.000;0.000;2022-09-03T09:43:39;29.00;61.30
56869;DHT22;42754;0.000;0.000;2022-09-03T09:46:08;28.80;61.20
56869;DHT22;42754;0.000;0.000;2022-09-03T09:48:38;28.60;61.40
56869;DHT22;42754;0.000;0.000;2022-09-03T09:51:05;28.30;61.40
56869;DHT22;42754;0.000;0.000;2022-09-03T09:53:33;27.80;62.70
56869;DHT22;42754;0.000;0.000;2022-09-03T09:55:59;27.60;62.50
56869;DHT22;42754;0.000;0.000;2022-09-03T09:58:28;27.60;63.00
56869;DHT22;42754;0.000;0.000;2022-09-03T10:01:10;27.90;62.70
56869;DHT22;42754;0.000;0.000;2022-09-03T10:03:54;27.40;62.20
56869;DHT22;42754;0.000;0.000;2022-09-03T10:06:25;27.30;63.00
56869;DHT22;42754;0.000;0.000;2022-09-03T10:09:18;27.10;63.30
56869;DHT22;42754;0.000;0.000;2022-09-03T10:11:47;27.70;63.60
56869;DHT22;42754;0.000;0.000;2022-09-03T10:14:26;28.30;62.50
56869;DHT22;42754;0.000;0.000;2022-09-03T10:17:04;28.30;62.20
56869;DHT22;42754;0.000;0.000;2022-09-03T10:20:09;28.60;61.60
56869;DHT22;42754;0.000;0.000;2022-09-03T10:23:19;28.50;61.10
56869;DHT22;42754;0.000;0.000;2022-09-03T10:26:02;28.80;61.20
56869;DHT22;42754;0.000;0.000;2022-09-03T10:28:36;28.80;61.30
56869;DHT22;42754;0.000;0.000;2022-09-03T10:34:11;29.30;60.30
56869;DHT22;42754;0.000;0.000;2022-09-03T10:42:27;29.60;60.70
56869;DHT22;42754;0.000;0.000;2022-09-03T11:02:06;29.70;59.50
56869;DHT22;42754;0.000;0.000;2022-09-03T11:07:33;30.20;59.40
56869;DHT22;42754;0.000;0.000;2022-09-03T11:10:20;30.80;58.70
56869;DHT22;42754;0.000;0.000;2022-09-03T11:15:57;30.10;59.10
56869;DHT22;42754;0.000;0.000;2022-09-03T11:20:57;30.70;58.70
56869;DHT22;42754;0.000;0.000;2022-09-03T11:23:27;30.50;58.90
56869;DHT22;42754;0.000;0.000;2022-09-03T11:26:00;30.60;58.10
56869;DHT22;42754;0.000;0.000;2022-09-03T11:36:50;30.80;58.50
56869;DHT22;42754;0.000;0.000;2022-09-03T11:42:02;30.80;58.70
56869;DHT22;42754;0.000;0.000;2022-09-03T11:44:43;30.80;58.90
56869;DHT22;42754;0.000;0.000;2022-09-03T11:47:22;30.40;58.90
56869;DHT22;42754;0.000;0.000;2022-09-03T11:49:51;30.40;59.00
56869;DHT22;42754;0.000;0.000;2022-09-03T11:52:30;30.20;59.20
56869;DHT22;42754;0.000;0.000;2022-09-03T11:55:06;30.20;59.90
56869;DHT22;42754;0.000;0.000;2022-09-03T11:57:32;30.40;58.60
56869;DHT22;42754;0.000;0.000;2022-09-03T12:00:15;30.20;58.40
56869;DHT22;42754;0.000;0.000;2022-09-03T12:03:01;30.20;58.00
56869;DHT22;42754;0.000;0.000;2022-09-03T12:11:07;30.70;58.30
56869;DHT22;42754;0.000;0.000;2022-09-03T12:17:05;30.60;58.40
56869;DHT22;42754;0.000;0.000;2022-09-03T12:22:16;30.40;58.90
56869;DHT22;42754;0.000;0.000;2022-09-03T12:24:42;30.60;58.60
56869;DHT22;42754;0.000;0.000;2022-09-03T12:27:15;30.60;58.70
56869;DHT22;42754;0.000;0.000;2022-09-03T12:29:57;30.70;58.90
56869;DHT22;42754;0.000;0.000;2022-09-03T12:32:29;30.20;59.20
56869;DHT22;42754;0.000;0.000;2022-09-03T12:34:57;30.30;58.40
56869;DHT22;42754;0.000;0.000;2022-09-03T12:37:25;30.50;59.40
56869;DHT22;42754;0.000;0.000;2022-09-03T12:39:52;30.80;58.50
56869;DHT22;42754;0.000;0.000;2022-09-03T12:42:26;30.60;58.70
56869;DHT22;42754;0.000;0.000;2022-09-03T12:44:52;30.70;58.50
56869;DHT22;42754;0.000;0.000;2022-09-03T12:47:22;30.40;58.90
56869;DHT22;42754;0.000;0.000;2022-09-03T12:49:50;30.40;59.30
56869;DHT22;42754;0.000;0.000;2022-09-03T12:52:31;30.40;59.00
56869;DHT22;42754;0.000;0.000;2022-09-03T12:57:44;30.20;59.40
56869;DHT22;42754;0.000;0.000;2022-09-03T13:00:16;30.20;59.60
56869;DHT22;42754;0.000;0.000;2022-09-03T13:02:57;29.70;59.90
56869;DHT22;42754;0.000;0.000;2022-09-03T13:05:28;30.20;59.10
56869;DHT22;42754;0.000;0.000;2022-09-03T13:07:57;30.20;59.60
56869;DHT22;42754;0.000;0.000;2022-09-03T13:10:28;30.50;59.70
56869;DHT22;42754;0.000;0.000;2022-09-03T13:13:03;30.40;60.20
56869;DHT22;42754;0.000;0.000;2022-09-03T13:15:31;30.50;59.80
56869;DHT22;42754;0.000;0.000;2022-09-03T13:23:39;29.70;59.50
56869;DHT22;42754;0.000;0.000;2022-09-03T13:26:29;30.00;60.30
56869;DHT22;42754;0.000;0.000;2022-09-03T13:44:09;30.10;60.90
56869;DHT22;42754;0.000;0.000;2022-09-03T13:49:38;30.20;62.40
56869;DHT22;42754;0.000;0.000;2022-09-03T13:52:42;30.40;61.30
56869;DHT22;42754;0.000;0.000;2022-09-03T14:00:48;29.70;61.30
56869;DHT22;42754;0.000;0.000;2022-09-03T14:03:56;29.50;61.40
56869;DHT22;42754;0.000;0.000;2022-09-03T14:06:53;29.80;62.10
56869;DHT22;42754;0.000;0.000;2022-09-03T14:09:38;30.00;61.20
56869;DHT22;42754;0.000;0.000;2022-09-03T14:14:51;29.60;61.30
56869;DHT22;42754;0.000;0.000;2022-09-03T14:20:29;29.20;61.40
56869;DHT22;42754;0.000;0.000;2022-09-03T14:25:22;29.50;61.10
56869;DHT22;42754;0.000;0.000;2022-09-03T14:27:48;29.50;61.50
56869;DHT22;42754;0.000;0.000;2022-09-03T14:38:44;29.30;61.50
56869;DHT22;42754;0.000;0.000;2022-09-03T14:41:21;29.20;60.80
56869;DHT22;42754;0.000;0.000;2022-09-03T14:43:56;29.40;61.80
56869;DHT22;42754;0.000;0.000;2022-09-03T14:57:47;28.90;62.00
56869;DHT22;42754;0.000;0.000;2022-09-03T15:08:48;28.70;61.90
56869;DHT22;42754;0.000;0.000;2022-09-03T15:11:23;28.80;61.30
56869;DHT22;42754;0.000;0.000;2022-09-03T15:14:12;28.70;60.90
56869;DHT22;42754;0.000;0.000;2022-09-03T15:19:40;28.40;61.90
56869;DHT22;42754;0.000;0.000;2022-09-03T15:28:01;28.60;61.50
56869;DHT22;42754;0.000;0.000;2022-09-03T15:30:35;28.40;61.30
56869;DHT22;42754;0.000;0.000;2022-09-03T15:33:20;28.50;61.80
56869;DHT22;42754;0.000;0.000;2022-09-03T15:36:19;28.50;61.60
56869;DHT22;42754;0.000;0.000;2022-09-03T15:38:55;28.40;61.40
56869;DHT22;42754;0.000;0.000;2022-09-03T15:44:34;28.20;61.50
56869;DHT22;42754;0.000;0.000;2022-09-03T15:47:11;28.10;61.80
56869;DHT22;42754;0.000;0.000;2022-09-03T15:52:25;28.10;62.90
56869;DHT22;42754;0.000;0.000;2022-09-03T15:55:14;28.10;62.00
56869;DHT22;42754;0.000;0.000;2022-09-03T16:00:18;28.10;61.50
56869;DHT22;42754;0.000;0.000;2022-09-03T16:05:47;28.30;62.20
56869;DHT22;42754;0.000;0.000;2022-09-03T16:08:21;28.20;61.30
56869;DHT22;42754;0.000;0.000;2022-09-03T16:11:12;28.10;62.50
56869;DHT22;42754;0.000;0.000;2022-09-03T16:14:17;28.20;62.30
56869;DHT22;42754;0.000;0.000;2022-09-03T16:17:12;28.20;63.30
56869;DHT22;42754;0.000;0.000;2022-09-03T16:22:27;28.00;62.90
56869;DHT22;42754;0.000;0.000;2022-09-03T16:25:12;28.00;63.70
56869;DHT22;42754;0.000;0.000;2022-09-03T16:51:31;27.30;64.80
56869;DHT22;42754;0.000;0.000;2022-09-03T16:56:47;27.10;65.30
56869;DHT22;42754;0.000;0.000;2022-09-03T17:02:25;26.90;66.30
56869;DHT22;42754;0.000;0.000;2022-09-03T17:07:55;26.90;67.00
56869;DHT22;42754;0.000;0.000;2022-09-03T17:10:48;26.80;67.00
56869;DHT22;42754;0.000;0.000;2022-09-03T17:13:36;26.80;67.30
56869;DHT22;42754;0.000;0.000;2022-09-03T17:16:26;26.70;67.90
56869;DHT22;42754;0.000;0.000;2022-09-03T17:21:48;26.50;67.50
56869;DHT22;42754;0.000;0.000;2022-09-03T17:24:43;26.50;68.00
56869;DHT22;42754;0.000;0.000;2022-09-03T17:27:35;26.40;68.40
56869;DHT22;42754;0.000;0.000;2022-09-03T17:30:19;26.30;68.60
56869;DHT22;42754;0.000;0.000;2022-09-03T17:33:04;26.20;68.70
56869;DHT22;42754;0.000;0.000;2022-09-03T17:35:53;26.10;69.00
56869;DHT22;42754;0.000;0.000;2022-09-03T17:38:38;26.00;69.70
56869;DHT22;42754;0.000;0.000;2022-09-03T17:41:25;25.90;70.20
56869;DHT22;42754;0.000;0.000;2022-09-03T17:44:07;25.80;70.30
56869;DHT22;42754;0.000;0.000;2022-09-03T17:46:44;25.70;71.00
56869;DHT22;42754;0.000;0.000;2022-09-03T17:49:20;25.60;71.40
56869;DHT22;42754;0.000;0.000;2022-09-03T17:52:02;25.60;72.10
56869;DHT22;42754;0.000;0.000;2022-09-03T17:54:39;25.40;71.80
56869;DHT22;42754;0.000;0.000;2022-09-03T17:57:22;25.40;72.80
56869;DHT22;42754;0.000;0.000;2022-09-03T18:00:09;25.30;72.40
56869;DHT22;42754;0.000;0.000;2022-09-03T18:02:49;25.10;72.50
56869;DHT22;42754;0.000;0.000;2022-09-03T18:08:13;25.00;72.90
56869;DHT22;42754;0.000;0.000;2022-09-03T18:13:23;24.70;73.50
56869;DHT22;42754;0.000;0.000;2022-09-03T18:18:51;24.50;75.40
56869;DHT22;42754;0.000;0.000;2022-09-03T18:21:21;24.40;75.20
56869;DHT22;42754;0.000;0.000;2022-09-03T18:30:07;24.10;75.60
56869;DHT22;42754;0.000;0.000;2022-09-03T18:32:51;24.10;75.70
56869;DHT22;42754;0.000;0.000;2022-09-03T18:35:36;24.00;75.90
56869;DHT22;42754;0.000;0.000;2022-09-03T18:38:29;23.90;76.50
56869;DHT22;42754;0.000;0.000;2022-09-03T18:52:55;23.50;78.70
56869;DHT22;42754;0.000;0.000;2022-09-03T19:01:47;23.10;79.20
56869;DHT22;42754;0.000;0.000;2022-09-03T19:13:37;22.90;79.80
56869;DHT22;42754;0.000;0.000;2022-09-03T19:22:34;22.60;80.50
56869;DHT22;42754;0.000;0.000;2022-09-03T19:25:19;22.40;80.70
56869;DHT22;42754;0.000;0.000;2022-09-03T19:28:12;22.40;81.20
56869;DHT22;42754;0.000;0.000;2022-09-03T19:31:04;22.30;81.40
56869;DHT22;42754;0.000;0.000;2022-09-03T19:46:44;21.90;82.50
56869;DHT22;42754;0.000;0.000;2022-09-03T19:52:37;21.80;83.00
56869;DHT22;42754;0.000;0.000;2022-09-03T19:55:26;21.70;83.90
56869;DHT22;42754;0.000;0.000;2022-09-03T19:58:17;21.60;84.30
56869;DHT22;42754;0.000;0.000;2022-09-03T20:01:01;21.50;84.30
56869;DHT22;42754;0.000;0.000;2022-09-03T20:03:46;21.50;84.60
56869;DHT22;42754;0.000;0.000;2022-09-03T20:06:38;21.40;85.20
56869;DHT22;42754;0.000;0.000;2022-09-03T20:09:27;21.30;85.10
56869;DHT22;42754;0.000;0.000;2022-09-03T20:12:13;21.20;85.20
56869;DHT22;42754;0.000;0.000;2022-09-03T20:14:48;21.10;85.40
56869;DHT22;42754;0.000;0.000;2022-09-03T20:20:02;21.00;85.60
56869;DHT22;42754;0.000;0.000;2022-09-03T20:22:46;21.00;85.60
56869;DHT22;42754;0.000;0.000;2022-09-03T20:28:33;20.90;85.90
56869;DHT22;42754;0.000;0.000;2022-09-03T20:31:07;20.80;86.10
56869;DHT22;42754;0.000;0.000;2022-09-03T20:33:46;20.90;85.70
56869;DHT22;42754;0.000;0.000;2022-09-03T20:42:58;20.70;86.30
56869;DHT22;42754;0.000;0.000;2022-09-03T20:48:24;20.50;86.80
56869;DHT22;42754;0.000;0.000;2022-09-03T20:53:41;20.60;86.60
56869;DHT22;42754;0.000;0.000;2022-09-03T20:56:37;20.50;87.00
56869;DHT22;42754;0.000;0.000;2022-09-03T21:07:46;20.20;88.00
56869;DHT22;42754;0.000;0.000;2022-09-03T21:15:56;20.00;88.60
56869;DHT22;42754;0.000;0.000;2022-09-03T21:18:36;20.00;88.70
56869;DHT22;42754;0.000;0.000;2022-09-03T21:21:25;19.90;89.30
56869;DHT22;42754;0.000;0.000;2022-09-03T21:24:10;19.90;89.00
56869;DHT22;42754;0.000;0.000;2022-09-03T21:26:40;19.90;89.40
56869;DHT22;42754;0.000;0.000;2022-09-03T21:29:38;19.80;88.80
56869;DHT22;42754;0.000;0.000;2022-09-03T21:37:23;19.90;89.00
56869;DHT22;42754;0.000;0.000;2022-09-03T21:39:55;19.80;89.40
56869;DHT22;42754;0.000;0.000;2022-09-03T21:42:38;19.70;89.90
56869;DHT22;42754;0.000;0.000;2022-09-03T21:45:34;19.60;90.10
56869;DHT22;42754;0.000;0.000;2022-09-03T21:48:21;19.60;89.90
56869;DHT22;42754;0.000;0.000;2022-09-03T21:50:54;19.50;90.10
56869;DHT22;42754;0.000;0.000;2022-09-03T22:04:16;19.40;90.40
56869;DHT22;42754;0.000;0.000;2022-09-03T22:09:29;19.50;90.30
56869;DHT22;42754;0.000;0.000;2022-09-03T22:12:12;19.30;90.90
56869;DHT22;42754;0.000;0.000;2022-09-03T22:14:48;19.20;91.00
56869;DHT22;42754;0.000;0.000;2022-09-03T22:17:34;19.10;90.90
56869;DHT22;42754;0.000;0.000;2022-09-03T22:20:04;19.20;90.90
56869;DHT22;42754;0.000;0.000;2022-09-03T22:22:54;19.20;91.20
56869;DHT22;42754;0.000;0.000;2022-09-03T22:30:58;19.10;91.20
56869;DHT22;42754;0.000;0.000;2022-09-03T22:33:44;19.10;91.10
56869;DHT22;42754;0.000;0.000;2022-09-03T22:36:28;19.10;91.20
56869;DHT22;42754;0.000;0.000;2022-09-03T22:39:34;19.10;91.20
56869;DHT22;42754;0.000;0.000;2022-09-03T22:46:05;18.80;91.60